createdAt,value
2017-11-28T00:01:53.834Z,-0.73
2017-11-28T00:04:21.432Z,-0.84
2017-11-28T00:06:49.071Z,-0.91
2017-11-28T00:09:16.681Z,-0.86
2017-11-28T00:11:44.242Z,-0.76
2017-11-28T00:14:11.830Z,-0.84
2017-11-28T00:16:39.389Z,-0.91
2017-11-28T00:19:07.254Z,-0.98
2017-11-28T00:21:35.191Z,-0.87
2017-11-28T00:24:02.778Z,-0.91
2017-11-28T00:26:30.402Z,-0.96
2017-11-28T00:28:58.008Z,-0.84
2017-11-28T00:31:25.599Z,-0.88
2017-11-28T00:33:53.183Z,-0.88
2017-11-28T00:36:20.782Z,-0.79
2017-11-28T00:38:48.429Z,-0.81
2017-11-28T00:41:16.021Z,-0.71
2017-11-28T00:43:43.651Z,-0.81
2017-11-28T00:46:11.433Z,-0.81
2017-11-28T00:48:39.077Z,-0.67
2017-11-28T00:51:06.635Z,-0.53
2017-11-28T00:53:34.186Z,-0.59
2017-11-28T00:56:01.859Z,-0.52
2017-11-28T00:58:29.432Z,-0.61
2017-11-28T01:00:56.983Z,-0.56
2017-11-28T01:03:24.590Z,-0.56
2017-11-28T01:05:52.156Z,-0.64
2017-11-28T01:08:19.729Z,-0.65
2017-11-28T01:10:47.374Z,-0.73
2017-11-28T01:13:15.504Z,-0.71
2017-11-28T01:15:43.091Z,-0.65
2017-11-28T01:18:10.688Z,-0.68
2017-11-28T01:20:38.280Z,-0.64
2017-11-28T01:23:05.917Z,-0.58
2017-11-28T01:25:33.570Z,-0.36
2017-11-28T01:28:01.140Z,-0.41
2017-11-28T01:30:28.719Z,-0.41
2017-11-28T01:32:56.391Z,-0.21
2017-11-28T01:35:24.007Z,-0.11
2017-11-28T01:37:51.648Z,0.05
2017-11-28T01:40:19.270Z,-0.12
2017-11-28T01:42:47.002Z,-0.18
2017-11-28T01:45:14.582Z,-0.07
2017-11-28T01:47:42.291Z,-0.09
2017-11-28T01:50:09.912Z,-0.10
2017-11-28T01:52:37.490Z,-0.06
2017-11-28T01:55:05.086Z,-0.16
2017-11-28T01:57:32.631Z,-0.02
2017-11-28T02:00:00.241Z,-0.05
2017-11-28T02:02:27.816Z,-0.15
2017-11-28T02:04:55.440Z,-0.16
2017-11-28T02:07:23.132Z,-0.20
2017-11-28T02:09:50.807Z,-0.09
2017-11-28T02:12:18.463Z,-0.13
2017-11-28T02:14:46.068Z,-0.10
2017-11-28T02:17:13.707Z,-0.07
2017-11-28T02:19:41.320Z,0.17
2017-11-28T02:22:09.001Z,0.22
2017-11-28T02:24:36.622Z,0.28
2017-11-28T02:27:05.595Z,0.08
2017-11-28T02:29:33.221Z,0.37
2017-11-28T02:32:00.779Z,0.48
2017-11-28T02:34:28.408Z,0.48
2017-11-28T02:36:56.006Z,0.59
2017-11-28T02:39:23.736Z,0.65
2017-11-28T02:41:51.295Z,0.70
2017-11-28T02:44:18.866Z,0.86
2017-11-28T02:46:46.447Z,0.93
2017-11-28T02:49:26.704Z,0.98
2017-11-28T02:52:07.352Z,1.04
2017-11-28T02:54:35.382Z,0.98
2017-11-28T02:57:02.946Z,1.04
2017-11-28T02:59:30.564Z,1.14
2017-11-28T03:01:59.158Z,1.19
2017-11-28T03:04:26.735Z,1.22
2017-11-28T03:06:54.387Z,1.21
2017-11-28T03:09:22.921Z,1.14
2017-11-28T03:11:50.568Z,1.22
2017-11-28T03:14:26.647Z,1.14
2017-11-28T03:16:55.579Z,0.96
2017-11-28T03:19:28.774Z,0.94
2017-11-28T03:22:03.029Z,1.15
2017-11-28T03:27:25.744Z,1.17
2017-11-28T03:29:57.543Z,1.09
2017-11-28T03:32:25.194Z,0.98
2017-11-28T03:34:52.935Z,1.02
2017-11-28T03:37:20.690Z,1.34
2017-11-28T03:39:48.348Z,1.34
2017-11-28T03:42:16.001Z,1.23
2017-11-28T03:47:54.459Z,2.57
2017-11-28T03:50:22.077Z,3.30
2017-11-28T03:52:50.006Z,3.68
2017-11-28T03:55:17.595Z,3.78
2017-11-28T03:57:45.250Z,3.86
2017-11-28T04:00:13.006Z,3.94
2017-11-28T04:02:40.687Z,3.99
2017-11-28T04:05:08.259Z,4.09
2017-11-28T04:07:35.866Z,4.11
2017-11-28T04:10:03.577Z,4.11
2017-11-28T04:12:31.215Z,4.19
2017-11-28T04:14:58.883Z,4.17
2017-11-28T04:17:26.521Z,4.10
2017-11-28T04:19:54.191Z,4.18
2017-11-28T04:22:21.797Z,4.31
2017-11-28T04:24:49.472Z,4.30
2017-11-28T04:27:17.117Z,4.35
2017-11-28T04:29:44.728Z,4.19
2017-11-28T04:32:12.375Z,4.24
2017-11-28T04:34:40.025Z,4.33
2017-11-28T04:37:07.643Z,4.37
2017-11-28T04:39:35.410Z,4.51
2017-11-28T04:42:03.046Z,4.50
2017-11-28T04:44:30.725Z,4.41
2017-11-28T04:46:58.416Z,4.48
2017-11-28T04:49:26.046Z,4.42
2017-11-28T04:51:53.699Z,4.36
2017-11-28T04:54:21.329Z,4.31
2017-11-28T04:56:48.920Z,4.37
2017-11-28T04:59:16.583Z,4.32
2017-11-28T05:01:44.171Z,4.25
2017-11-28T05:04:11.756Z,4.28
2017-11-28T05:06:39.380Z,4.29
2017-11-28T05:09:07.095Z,4.34
2017-11-28T05:11:34.727Z,4.28
2017-11-28T05:14:02.364Z,4.18
2017-11-28T05:16:29.978Z,4.07
2017-11-28T05:18:57.628Z,4.18
2017-11-28T05:21:25.342Z,4.32
2017-11-28T05:23:52.941Z,4.34
2017-11-28T05:26:20.570Z,4.31
2017-11-28T05:28:48.186Z,4.36
2017-11-28T05:31:15.819Z,4.26
2017-11-28T05:33:43.466Z,4.29
2017-11-28T05:36:11.075Z,4.26
2017-11-28T05:38:38.718Z,4.24
2017-11-28T05:41:06.334Z,4.29
2017-11-28T05:43:34.003Z,4.35
2017-11-28T05:46:01.588Z,4.32
2017-11-28T05:48:29.814Z,4.23
2017-11-28T05:50:57.430Z,4.13
2017-11-28T05:53:35.741Z,3.91
2017-11-28T05:56:03.420Z,4.07
2017-11-28T05:58:31.035Z,4.36
2017-11-28T06:00:59.409Z,4.57
2017-11-28T06:03:27.069Z,4.58
2017-11-28T06:05:54.711Z,4.66
2017-11-28T06:08:34.412Z,4.77
2017-11-28T06:11:02.008Z,4.85
2017-11-28T06:13:30.435Z,4.93
2017-11-28T06:15:58.041Z,4.92
2017-11-28T06:18:25.691Z,4.84
2017-11-28T06:20:53.254Z,4.79
2017-11-28T06:23:20.873Z,4.78
2017-11-28T06:25:48.499Z,4.78
2017-11-28T06:28:16.161Z,4.82
2017-11-28T06:30:43.828Z,4.82
2017-11-28T06:33:11.447Z,4.88
2017-11-28T06:35:39.971Z,4.81
2017-11-28T06:38:07.589Z,4.71
2017-11-28T06:40:35.137Z,4.84
2017-11-28T06:43:02.740Z,4.84
2017-11-28T06:45:30.319Z,4.90
2017-11-28T06:47:57.908Z,4.94
2017-11-28T06:50:25.584Z,4.94
2017-11-28T06:52:53.264Z,4.87
2017-11-28T06:55:20.949Z,4.90
2017-11-28T06:57:48.625Z,4.91
2017-11-28T07:00:16.201Z,4.93
2017-11-28T07:02:43.805Z,4.89
2017-11-28T07:05:11.754Z,4.91
2017-11-28T07:07:40.467Z,4.92
2017-11-28T07:10:08.046Z,4.96
2017-11-28T07:12:35.797Z,5.01
2017-11-28T07:15:03.383Z,4.98
2017-11-28T07:17:31.062Z,5.16
2017-11-28T07:19:58.800Z,5.15
2017-11-28T07:22:26.463Z,4.92
2017-11-28T07:24:54.055Z,4.85
2017-11-28T07:27:21.614Z,4.93
2017-11-28T07:29:49.257Z,4.91
2017-11-28T07:32:16.928Z,4.95
2017-11-28T07:34:44.540Z,4.62
2017-11-28T07:37:12.117Z,4.69
2017-11-28T07:39:39.752Z,4.64
2017-11-28T07:42:07.379Z,4.65
2017-11-28T07:44:35.000Z,4.89
2017-11-28T07:47:02.717Z,4.75
2017-11-28T07:49:30.587Z,4.76
2017-11-28T07:51:58.259Z,4.92
2017-11-28T07:54:25.926Z,5.11
2017-11-28T07:56:53.511Z,5.18
2017-11-28T07:59:21.129Z,5.21
2017-11-28T08:01:48.851Z,5.22
2017-11-28T08:04:16.482Z,5.26
2017-11-28T08:06:44.081Z,5.27
2017-11-28T08:09:11.843Z,5.16
2017-11-28T08:11:39.407Z,4.95
2017-11-28T08:14:07.037Z,4.82
2017-11-28T08:16:34.653Z,4.67
2017-11-28T08:19:02.594Z,4.46
2017-11-28T08:21:34.506Z,4.36
2017-11-28T08:24:03.769Z,4.59
2017-11-28T08:26:33.863Z,4.66
2017-11-28T08:29:01.648Z,4.61
2017-11-28T08:31:35.410Z,4.65
2017-11-28T08:34:08.002Z,4.88
2017-11-28T08:36:35.635Z,4.93
2017-11-28T08:39:03.226Z,4.86
2017-11-28T08:44:04.354Z,5.20
2017-11-28T08:46:31.965Z,5.47
2017-11-28T08:49:05.568Z,5.70
2017-11-28T08:51:37.816Z,5.37
2017-11-28T08:54:08.203Z,5.34
2017-11-28T08:56:35.856Z,5.24
2017-11-28T08:59:05.363Z,5.41
2017-11-28T09:01:34.218Z,5.41
2017-11-28T09:04:01.905Z,5.27
2017-11-28T09:06:30.498Z,5.40
2017-11-28T09:08:58.533Z,5.43
2017-11-28T09:11:27.210Z,5.70
2017-11-28T09:13:54.912Z,5.84
2017-11-28T09:16:22.554Z,5.91
2017-11-28T09:18:50.211Z,5.89
2017-11-28T09:21:17.856Z,5.88
2017-11-28T09:23:46.143Z,5.80
2017-11-28T09:26:13.732Z,5.81
2017-11-28T09:28:47.276Z,5.98
2017-11-28T09:31:16.665Z,5.89
2017-11-28T09:33:44.325Z,6.19
2017-11-28T09:36:11.901Z,6.35
2017-11-28T09:38:39.513Z,6.55
2017-11-28T09:41:07.160Z,6.65
2017-11-28T09:43:34.810Z,6.26
2017-11-28T09:46:03.413Z,6.31
2017-11-28T09:48:31.015Z,6.10
2017-11-28T09:50:58.630Z,6.41
2017-11-28T09:53:26.303Z,6.41
2017-11-28T09:55:53.868Z,6.33
2017-11-28T09:58:21.501Z,6.22
2017-11-28T10:00:49.166Z,6.12
2017-11-28T10:03:16.780Z,6.64
2017-11-28T10:05:44.398Z,6.96
2017-11-28T10:08:11.968Z,7.20
2017-11-28T10:10:39.528Z,7.28
2017-11-28T10:13:07.200Z,7.07
2017-11-28T10:15:34.794Z,6.81
2017-11-28T10:18:02.435Z,6.33
2017-11-28T10:20:30.145Z,6.19
2017-11-28T10:22:57.718Z,6.24
2017-11-28T10:25:25.286Z,6.22
2017-11-28T10:27:52.888Z,6.28
2017-11-28T10:30:20.445Z,6.92
2017-11-28T10:35:21.917Z,6.71
2017-11-28T10:37:49.512Z,7.05
2017-11-28T10:40:17.134Z,6.82
2017-11-28T10:42:44.741Z,6.69
2017-11-28T10:45:12.346Z,7.36
2017-11-28T10:47:39.971Z,7.80
2017-11-28T10:50:07.562Z,7.54
2017-11-28T10:52:35.137Z,7.73
2017-11-28T10:55:02.790Z,7.54
2017-11-28T10:57:30.382Z,7.54
2017-11-28T10:59:57.942Z,7.49
2017-11-28T11:02:25.546Z,7.55
2017-11-28T11:04:53.108Z,7.98
2017-11-28T11:07:20.661Z,8.25
2017-11-28T11:09:49.002Z,8.09
2017-11-28T11:12:16.614Z,8.00
2017-11-28T11:14:44.189Z,8.24
2017-11-28T11:17:11.821Z,8.53
2017-11-28T11:19:39.448Z,8.67
2017-11-28T11:22:07.053Z,8.68
2017-11-28T11:24:34.640Z,8.61
2017-11-28T11:27:02.238Z,8.52
2017-11-28T11:29:29.868Z,8.24
2017-11-28T11:31:57.452Z,8.20
2017-11-28T11:34:25.034Z,8.49
2017-11-28T11:36:52.574Z,8.64
2017-11-28T11:39:20.146Z,8.92
2017-11-28T11:41:47.780Z,9.12
2017-11-28T11:46:49.277Z,9.24
2017-11-28T11:49:16.867Z,9.13
2017-11-28T11:51:44.432Z,9.20
2017-11-28T11:54:12.354Z,9.35
2017-11-28T11:56:39.931Z,9.35
2017-11-28T11:59:07.567Z,9.18
2017-11-28T12:01:35.170Z,9.39
2017-11-28T12:04:02.743Z,9.74
2017-11-28T12:06:30.322Z,9.95
2017-11-28T12:08:57.933Z,9.73
2017-11-28T12:11:25.522Z,9.70
2017-11-28T12:13:53.108Z,9.97
2017-11-28T12:16:20.732Z,10.36
2017-11-28T12:18:48.382Z,10.35
2017-11-28T12:21:15.943Z,10.05
2017-11-28T12:23:43.611Z,9.78
2017-11-28T12:26:11.198Z,9.73
2017-11-28T12:28:38.813Z,9.40
2017-11-28T12:31:06.480Z,9.24
2017-11-28T12:33:34.091Z,9.41
2017-11-28T12:36:01.672Z,9.48
2017-11-28T12:38:29.253Z,9.43
2017-11-28T12:40:56.846Z,9.45
2017-11-28T12:43:24.488Z,9.78
2017-11-28T12:45:52.107Z,9.67
2017-11-28T12:48:19.688Z,9.49
2017-11-28T12:50:47.291Z,9.35
2017-11-28T12:53:14.881Z,9.28
2017-11-28T12:55:42.441Z,9.36
2017-11-28T12:58:10.076Z,9.12
2017-11-28T13:00:37.637Z,9.23
2017-11-28T13:03:05.284Z,9.28
2017-11-28T13:05:32.901Z,9.30
2017-11-28T13:08:00.488Z,9.12
2017-11-28T13:10:28.036Z,9.15
2017-11-28T13:12:55.681Z,9.08
2017-11-28T13:15:23.251Z,8.76
2017-11-28T13:17:50.813Z,8.68
2017-11-28T13:20:18.452Z,8.63
2017-11-28T13:22:46.031Z,8.45
2017-11-28T13:25:13.663Z,8.40
2017-11-28T13:27:41.268Z,8.37
2017-11-28T13:30:08.893Z,8.36
2017-11-28T13:32:36.490Z,8.27
2017-11-28T13:35:04.057Z,8.27
2017-11-28T13:37:31.722Z,8.26
2017-11-28T13:39:59.312Z,8.20
2017-11-28T13:42:26.954Z,8.20
2017-11-28T13:44:54.517Z,8.12
2017-11-28T13:47:22.133Z,8.07
2017-11-28T13:49:49.744Z,8.00
2017-11-28T13:52:17.351Z,7.94
2017-11-28T13:54:44.932Z,7.93
2017-11-28T13:57:12.557Z,7.78
2017-11-28T13:59:40.126Z,7.66
2017-11-28T14:02:07.728Z,7.68
2017-11-28T14:04:35.325Z,7.77
2017-11-28T14:07:02.895Z,7.73
2017-11-28T14:09:30.522Z,7.65
2017-11-28T14:12:02.940Z,7.59
2017-11-28T14:14:30.572Z,7.53
2017-11-28T14:16:58.168Z,7.61
2017-11-28T14:22:31.981Z,7.53
2017-11-28T14:25:06.173Z,7.38
2017-11-28T14:27:36.305Z,7.29
2017-11-28T14:30:09.423Z,7.30
2017-11-28T14:35:43.498Z,7.21
2017-11-28T14:38:11.123Z,7.18
2017-11-28T14:40:39.113Z,7.14
2017-11-28T14:43:07.675Z,7.16
2017-11-28T14:45:36.000Z,7.09
2017-11-28T14:48:03.625Z,6.92
2017-11-28T14:53:40.290Z,6.80
2017-11-28T14:56:08.731Z,6.81
2017-11-28T14:58:38.129Z,6.64
2017-11-28T15:01:14.206Z,6.63
2017-11-28T15:03:49.271Z,6.50
2017-11-28T15:06:22.356Z,6.36
2017-11-28T15:09:02.081Z,6.34
2017-11-28T15:11:35.262Z,6.25
2017-11-28T15:17:25.685Z,6.29
2017-11-28T15:20:01.885Z,6.30
2017-11-28T15:22:35.958Z,6.28
2017-11-28T15:28:04.771Z,6.09
2017-11-28T15:30:32.397Z,6.07
2017-11-28T15:33:00.011Z,6.00
2017-11-28T15:35:27.789Z,5.82
2017-11-28T15:37:55.394Z,5.60
2017-11-28T15:40:29.732Z,5.48
2017-11-28T15:42:57.374Z,5.33
2017-11-28T15:45:24.951Z,5.19
2017-11-28T15:47:52.570Z,5.26
2017-11-28T15:50:20.151Z,5.19
2017-11-28T15:52:47.719Z,4.86
2017-11-28T15:55:15.376Z,4.71
2017-11-28T15:57:42.957Z,4.60
2017-11-28T16:00:10.553Z,4.55
2017-11-28T16:02:38.178Z,4.53
2017-11-28T16:05:05.730Z,4.52
2017-11-28T16:07:33.324Z,4.43
2017-11-28T16:10:00.949Z,4.39
2017-11-28T16:12:28.512Z,4.27
2017-11-28T16:14:56.099Z,4.21
2017-11-28T16:17:23.710Z,4.14
2017-11-28T16:19:51.298Z,4.14
2017-11-28T16:22:18.901Z,4.19
2017-11-28T16:24:46.486Z,4.20
2017-11-28T16:27:14.050Z,4.14
2017-11-28T16:29:41.641Z,4.18
2017-11-28T16:32:09.267Z,4.14
2017-11-28T16:34:36.850Z,4.13
2017-11-28T16:37:04.473Z,4.11
2017-11-28T16:39:32.034Z,4.10
2017-11-28T16:41:59.594Z,4.17
2017-11-28T16:44:27.197Z,4.20
2017-11-28T16:46:54.775Z,4.17
2017-11-28T16:49:22.526Z,4.16
2017-11-28T16:51:50.110Z,4.13
2017-11-28T16:54:17.678Z,4.11
2017-11-28T16:56:45.292Z,4.17
2017-11-28T16:59:12.846Z,4.41
2017-11-28T17:01:40.427Z,4.56
2017-11-28T17:04:08.058Z,4.52
2017-11-28T17:06:35.674Z,4.43
2017-11-28T17:09:03.587Z,4.45
2017-11-28T17:11:31.234Z,4.40
2017-11-28T17:13:58.863Z,4.43
2017-11-28T17:16:26.452Z,4.48
2017-11-28T17:18:54.074Z,4.39
2017-11-28T17:21:21.669Z,4.42
2017-11-28T17:23:49.243Z,4.53
2017-11-28T17:26:16.859Z,4.57
2017-11-28T17:28:44.487Z,4.50
2017-11-28T17:31:12.067Z,4.49
2017-11-28T17:33:39.658Z,4.50
2017-11-28T17:36:07.283Z,4.35
2017-11-28T17:38:34.838Z,4.49
2017-11-28T17:41:02.447Z,4.41
2017-11-28T17:43:30.010Z,4.40
2017-11-28T17:45:57.557Z,4.50
2017-11-28T17:48:25.150Z,4.55
2017-11-28T17:50:52.716Z,4.51
2017-11-28T17:53:20.277Z,4.59
2017-11-28T17:55:47.900Z,4.47
2017-11-28T17:58:15.502Z,4.50
2017-11-28T18:00:43.091Z,4.45
2017-11-28T18:03:10.853Z,4.31
2017-11-28T18:05:38.426Z,4.25
2017-11-28T18:08:05.989Z,4.18
2017-11-28T18:10:33.610Z,4.17
2017-11-28T18:13:01.181Z,4.15
2017-11-28T18:15:28.744Z,4.30
2017-11-28T18:17:56.339Z,4.41
2017-11-28T18:20:23.908Z,4.45
2017-11-28T18:22:51.500Z,4.36
2017-11-28T18:25:19.047Z,4.27
2017-11-28T18:27:46.631Z,4.24
2017-11-28T18:30:15.807Z,4.23
2017-11-28T18:32:44.453Z,4.30
2017-11-28T18:35:12.015Z,4.40
2017-11-28T18:37:39.703Z,4.25
2017-11-28T18:40:07.310Z,4.16
2017-11-28T18:42:34.999Z,4.17
2017-11-28T18:45:02.681Z,4.15
2017-11-28T18:47:30.421Z,4.08
2017-11-28T18:49:58.091Z,4.08
2017-11-28T18:52:25.683Z,3.95
2017-11-28T18:54:53.292Z,3.90
2017-11-28T18:57:20.883Z,3.89
2017-11-28T18:59:48.548Z,3.89
2017-11-28T19:05:06.430Z,3.81
2017-11-28T19:07:37.765Z,3.73
2017-11-28T19:10:05.505Z,3.57
2017-11-28T19:12:33.111Z,3.56
2017-11-28T19:15:00.729Z,3.50
2017-11-28T19:17:28.322Z,3.56
2017-11-28T19:19:55.955Z,3.53
2017-11-28T19:22:23.635Z,3.43
2017-11-28T19:24:51.200Z,3.46
2017-11-28T19:27:18.784Z,3.33
2017-11-28T19:29:46.862Z,3.35
2017-11-28T19:32:14.480Z,3.34
2017-11-28T19:34:42.051Z,3.29
2017-11-28T19:37:09.613Z,3.29
2017-11-28T19:39:37.227Z,3.17
2017-11-28T19:42:04.792Z,3.21
2017-11-28T19:44:32.394Z,3.24
2017-11-28T19:47:00.162Z,3.26
2017-11-28T19:49:27.731Z,3.28
2017-11-28T19:51:55.292Z,3.33
2017-11-28T19:54:23.012Z,3.34
2017-11-28T19:56:50.583Z,3.34
2017-11-28T19:59:18.131Z,3.24
2017-11-28T20:01:45.722Z,3.24
2017-11-28T20:04:13.321Z,3.24
2017-11-28T20:06:40.878Z,3.29
2017-11-28T20:09:08.736Z,3.39
2017-11-28T20:11:36.333Z,3.36
2017-11-28T20:14:03.931Z,3.33
2017-11-28T20:16:32.418Z,3.32
2017-11-28T20:19:00.937Z,3.31
2017-11-28T20:21:28.645Z,3.26
2017-11-28T20:23:56.245Z,3.26
2017-11-28T20:26:24.380Z,3.32
2017-11-28T20:28:51.964Z,3.30
2017-11-28T20:31:19.681Z,3.33
2017-11-28T20:33:47.251Z,3.33
2017-11-28T20:36:14.823Z,3.24
2017-11-28T20:38:42.427Z,3.12
2017-11-28T20:41:11.836Z,3.12
2017-11-28T20:43:39.426Z,3.20
2017-11-28T20:46:07.122Z,3.29
2017-11-28T20:48:34.693Z,3.26
2017-11-28T20:51:02.264Z,3.22
2017-11-28T20:53:30.038Z,3.31
2017-11-28T20:55:57.621Z,3.30
2017-11-28T20:58:25.228Z,3.33
2017-11-28T21:00:52.891Z,3.41
2017-11-28T21:03:20.470Z,3.52
2017-11-28T21:05:48.120Z,3.53
2017-11-28T21:08:15.745Z,3.54
2017-11-28T21:10:43.312Z,3.58
2017-11-28T21:13:11.312Z,3.63
2017-11-28T21:15:38.878Z,3.75
2017-11-28T21:18:06.647Z,3.97
2017-11-28T21:20:34.253Z,3.96
2017-11-28T21:23:01.875Z,3.93
2017-11-28T21:25:29.454Z,3.93
2017-11-28T21:27:57.055Z,4.01
2017-11-28T21:30:24.704Z,3.93
2017-11-28T21:32:52.312Z,3.91
2017-11-28T21:35:19.889Z,3.89
2017-11-28T21:37:47.527Z,3.90
2017-11-28T21:40:15.111Z,3.85
2017-11-28T21:42:42.673Z,3.74
2017-11-28T21:45:10.428Z,3.66
2017-11-28T21:47:38.019Z,3.51
2017-11-28T21:50:05.568Z,3.39
2017-11-28T21:52:33.169Z,3.53
2017-11-28T21:55:00.772Z,3.62
2017-11-28T21:57:28.408Z,3.67
2017-11-28T21:59:56.065Z,3.48
2017-11-28T22:02:23.710Z,3.35
2017-11-28T22:04:51.265Z,3.34
2017-11-28T22:07:19.094Z,3.35
2017-11-28T22:09:46.733Z,3.48
2017-11-28T22:12:14.292Z,3.45
2017-11-28T22:14:41.980Z,3.21
2017-11-28T22:17:09.662Z,3.22
2017-11-28T22:19:37.354Z,3.35
2017-11-28T22:22:05.055Z,3.37
2017-11-28T22:24:32.652Z,3.29
2017-11-28T22:27:00.305Z,3.23
2017-11-28T22:29:27.883Z,3.17
2017-11-28T22:31:55.495Z,3.15
2017-11-28T22:34:23.149Z,3.09
2017-11-28T22:36:50.720Z,3.07
2017-11-28T22:39:18.302Z,3.07
2017-11-28T22:41:45.877Z,3.17
2017-11-28T22:44:13.483Z,3.10
2017-11-28T22:46:41.056Z,3.08
2017-11-28T22:49:08.745Z,3.01
2017-11-28T22:51:36.354Z,3.04
2017-11-28T22:54:04.194Z,3.04
2017-11-28T22:56:31.789Z,3.13
2017-11-28T22:58:59.356Z,3.16
2017-11-28T23:01:26.961Z,3.08
2017-11-28T23:03:54.579Z,3.00
2017-11-28T23:06:22.146Z,2.97
2017-11-28T23:08:49.711Z,3.00
2017-11-28T23:11:17.354Z,3.02
2017-11-28T23:14:01.805Z,3.07
2017-11-28T23:16:29.459Z,3.10
2017-11-28T23:18:57.033Z,3.23
2017-11-28T23:21:24.607Z,3.34
2017-11-28T23:23:52.246Z,3.42
2017-11-28T23:26:19.942Z,3.32
2017-11-28T23:28:47.560Z,3.41
2017-11-28T23:31:16.065Z,3.34
2017-11-28T23:33:44.136Z,3.22
2017-11-28T23:36:11.711Z,3.23
2017-11-28T23:38:39.361Z,3.20
2017-11-28T23:41:06.940Z,3.29
2017-11-28T23:43:34.494Z,3.32
2017-11-28T23:46:02.107Z,3.32
2017-11-28T23:48:29.710Z,3.22
2017-11-28T23:50:57.275Z,3.17
2017-11-28T23:53:24.917Z,3.12
2017-11-28T23:55:52.505Z,3.08
2017-11-28T23:58:20.108Z,2.95
